Time;durP1;ratioP1;P1;durP2;ratioP2;P2;SDS_P1;SDS_P2;PMS_P1;PMS_P2;Temp;Humidity;BMP_temperature;BMP_pressure;BME280_temperature;BME280_humidity;BME280_pressure;Samples;Min_cycle;Max_cycle;Signal;HPM_P1;HPM_P2
2023/10/04 00:06:29;;;;;;;7.70;3.60;;;;;;;15.32;78.82;98776.89;436395;1253;108111;-43
2023/10/04 00:16:34;;;;;;;6.80;3.20;;;;;;;15.33;79.03;98798.58;436410;1248;97507;-41
2023/10/04 00:26:38;;;;;;;3.00;1.90;;;;;;;15.29;80.53;98834.79;436551;1248;110232;-42
2023/10/04 00:36:43;;;;;;;2.60;1.40;;;;;;;15.01;82.01;98797.55;436037;1261;514889;-42
2023/10/04 00:56:55;;;;;;;5.30;2.30;;;;;;;14.69;82.38;98878.64;436449;1253;108145;-41
2023/10/04 01:17:03;;;;;;;2.30;1.40;;;;;;;14.42;83.34;98935.63;436396;1253;110146;-43
2023/10/04 01:27:07;;;;;;;3.50;2.10;;;;;;;14.36;83.76;98957.52;436373;1252;107228;-43
2023/10/04 01:37:10;;;;;;;2.90;1.60;;;;;;;14.30;84.30;98989.83;436368;1247;98368;-43
2023/10/04 01:57:21;;;;;;;5.20;1.50;;;;;;;14.00;84.01;99033.13;436354;1248;97578;-42
2023/10/04 02:07:25;;;;;;;3.90;1.30;;;;;;;13.91;83.64;99051.77;436905;1251;110264;-41
2023/10/04 02:17:29;;;;;;;3.90;1.80;;;;;;;13.76;83.46;99065.84;435937;1261;107765;-42
2023/10/04 02:27:36;;;;;;;3.40;1.30;;;;;;;13.67;83.22;99083.90;435972;1252;97903;-43
2023/10/04 02:38:16;;;;;;;8.40;1.70;;;;;;;13.71;83.41;99104.80;435864;1262;108364;-43
2023/10/04 02:48:21;;;;;;;4.20;1.70;;;;;;;13.61;83.25;99124.39;436090;1251;97865;-41
2023/10/04 02:58:26;;;;;;;8.50;1.70;;;;;;;13.48;83.27;99141.10;435885;1271;111205;-43
2023/10/04 03:08:32;;;;;;;7.70;1.70;;;;;;;13.40;83.19;99164.99;435907;1248;108512;-42
2023/10/04 03:18:37;;;;;;;6.20;1.50;;;;;;;13.25;82.84;99183.85;435793;1254;97871;-42
2023/10/04 03:28:44;;;;;;;8.10;1.50;;;;;;;12.99;82.54;99201.31;435883;1248;109847;-42
2023/10/04 03:38:49;;;;;;;10.80;1.70;;;;;;;12.76;82.29;99202.06;435667;1254;97475;-42
2023/10/04 03:48:53;;;;;;;5.50;1.50;;;;;;;12.66;82.31;99203.46;435967;1253;110826;-42
2023/10/04 03:58:57;;;;;;;5.90;2.20;;;;;;;12.60;82.41;99203.23;436029;1247;107219;-43
2023/10/04 04:09:09;;;;;;;5.00;1.60;;;;;;;12.49;82.27;99198.42;435910;1263;97890;-43
2023/10/04 04:19:15;;;;;;;5.50;1.40;;;;;;;12.31;82.27;99216.55;435832;1253;107636;-42
2023/10/04 04:29:19;;;;;;;3.10;1.70;;;;;;;12.18;82.46;99237.80;435956;1254;96641;-43
2023/10/04 04:39:28;;;;;;;12.50;1.80;;;;;;;12.09;82.35;99259.09;435816;1254;111691;-42
2023/10/04 04:49:32;;;;;;;;;;;;;;;12.03;82.47;99280.27;436060;1263;107873;-42
2023/10/04 04:59:37;;;;;;;4.40;1.80;;;;;;;11.88;82.58;99300.70;436023;1247;97450;-42
2023/10/04 05:09:42;;;;;;;7.90;2.60;;;;;;;11.92;83.16;99302.36;435956;1252;107513;-42
2023/10/04 05:19:45;;;;;;;7.30;2.40;;;;;;;11.95;83.17;99294.90;436162;1247;96662;-42
2023/10/04 05:29:49;;;;;;;6.10;2.10;;;;;;;11.99;82.91;99306.42;436078;1252;110557;-43
2023/10/04 05:39:53;;;;;;;14.00;3.20;;;;;;;12.23;82.68;99331.47;436083;1251;108600;-41
2023/10/04 05:49:58;;;;;;;7.10;1.60;;;;;;;12.39;82.61;99360.23;436208;1247;98024;-41
2023/10/04 06:00:21;;;;;;;12.00;2.30;;;;;;;12.51;82.66;99371.34;436258;1247;106602;-44
2023/10/04 06:10:26;;;;;;;8.40;2.20;;;;;;;12.62;82.37;99386.87;436258;1253;97900;-42
2023/10/04 06:20:33;;;;;;;6.90;1.90;;;;;;;13.04;82.15;99408.52;436198;1255;110010;-42
2023/10/04 06:30:38;;;;;;;6.40;2.10;;;;;;;14.17;81.47;99417.08;436224;1253;108585;-42
2023/10/04 06:40:42;;;;;;;3.60;1.70;;;;;;;14.51;78.75;99416.34;436171;1248;97880;-42
2023/10/04 06:50:49;;;;;;;4.30;1.30;;;;;;;14.39;77.37;99417.41;436040;1252;107152;-42
2023/10/04 07:00:53;;;;;;;4.60;1.40;;;;;;;14.26;77.02;99416.23;436180;1252;97886;-42
2023/10/04 07:11:03;;;;;;;5.10;1.90;;;;;;;14.32;76.23;99430.77;436000;1247;110467;-42
2023/10/04 07:21:07;;;;;;;7.50;1.20;;;;;;;14.53;75.50;99438.46;435936;1252;108178;-42
2023/10/04 07:31:12;;;;;;;5.00;2.00;;;;;;;14.72;74.73;99440.42;435923;1248;98257;-42
2023/10/04 07:41:16;;;;;;;6.70;1.70;;;;;;;14.90;73.71;99434.77;436100;1252;109828;-42
2023/10/04 07:51:20;;;;;;;5.10;1.80;;;;;;;15.43;71.93;99428.63;436058;1248;97482;-42
2023/10/04 08:01:24;;;;;;;4.70;1.20;;;;;;;16.11;71.38;99428.55;436016;1248;97740;-43
2023/10/04 08:11:29;;;;;;;4.40;1.70;;;;;;;16.25;69.85;99427.04;435875;1247;111492;-42
2023/10/04 08:21:34;;;;;;;6.40;1.20;;;;;;;16.62;69.32;99433.16;436029;1248;97880;-42
2023/10/04 08:31:37;;;;;;;6.70;1.90;;;;;;;16.65;68.56;99450.40;436041;1252;97480;-43
2023/10/04 08:41:45;;;;;;;5.60;2.00;;;;;;;17.00;67.53;99453.38;436095;1252;111409;-41
2023/10/04 08:52:00;;;;;;;2.40;1.80;;;;;;;17.13;66.17;99447.20;435905;1248;108647;-41
2023/10/04 09:02:07;;;;;;;5.00;1.40;;;;;;;16.92;65.01;99451.05;435896;1248;118332;-42
2023/10/04 09:12:11;;;;;;;7.80;1.50;;;;;;;16.92;65.42;99454.41;435911;1252;107139;-41
2023/10/04 09:22:17;;;;;;;7.90;2.20;;;;;;;16.81;64.15;99456.11;435985;1248;97121;-42
2023/10/04 09:32:35;;;;;;;8.10;2.40;;;;;;;17.04;63.87;99454.34;435980;1248;110654;-43
2023/10/04 09:42:51;;;;;;;5.70;1.90;;;;;;;17.13;63.50;99456.40;435983;1252;107144;-40
2023/10/04 09:52:55;;;;;;;5.80;1.40;;;;;;;17.35;62.22;99461.36;435931;1248;97883;-42
2023/10/04 10:03:04;;;;;;;5.00;1.70;;;;;;;18.04;61.84;99459.58;435954;1249;97871;-43
2023/10/04 10:13:09;;;;;;;6.40;1.80;;;;;;;18.64;61.20;99449.35;435832;1252;108076;-42
2023/10/04 10:23:13;;;;;;;2.90;1.50;;;;;;;19.02;60.33;99441.98;435856;1251;99223;-41
2023/10/04 10:33:22;;;;;;;5.10;1.30;;;;;;;18.78;58.70;99444.32;436012;1252;97884;-42
2023/10/04 10:43:26;;;;;;;5.50;2.10;;;;;;;18.78;58.80;99449.15;436052;1252;107713;-41
2023/10/04 10:53:32;;;;;;;3.50;1.60;;;;;;;18.76;58.82;99461.20;436025;1248;97091;-42
2023/10/04 11:03:40;;;;;;;4.60;2.40;;;;;;;18.57;57.54;99467.91;435835;1247;108628;-44
2023/10/04 11:13:45;;;;;;;9.10;1.60;;;;;;;18.38;57.20;99474.72;435733;1252;96636;-41
2023/10/04 11:23:49;;;;;;;3.60;1.40;;;;;;;18.12;57.57;99469.52;435881;1249;110082;-42
2023/10/04 11:33:59;;;;;;;4.70;1.70;;;;;;;17.84;57.50;99470.99;435957;1248;107598;-43
2023/10/04 11:44:04;;;;;;;4.40;1.60;;;;;;;17.55;58.21;99460.80;435928;1247;97903;-42
2023/10/04 11:54:09;;;;;;;3.20;1.70;;;;;;;17.37;58.48;99451.44;435954;1248;108641;-41
2023/10/04 12:04:14;;;;;;;9.20;2.40;;;;;;;17.57;58.68;99445.09;435814;1247;97867;-41
2023/10/04 12:14:19;;;;;;;2.20;1.50;;;;;;;17.69;59.21;99448.73;435798;1250;110189;-41
2023/10/04 12:24:30;;;;;;;4.60;2.10;;;;;;;17.76;58.95;99451.63;435816;1247;108435;-41
2023/10/04 12:34:37;;;;;;;5.90;2.30;;;;;;;17.35;58.84;99456.54;435579;1252;96678;-41
2023/10/04 12:44:42;;;;;;;4.50;1.90;;;;;;;17.05;59.29;99458.45;435427;1247;395531;-43
2023/10/04 12:54:46;;;;;;;2.10;1.40;;;;;;;16.94;59.54;99460.05;435886;1249;108963;-42
2023/10/04 13:04:50;;;;;;;4.70;2.00;;;;;;;16.90;59.97;99456.38;435870;1252;96593;-42
2023/10/04 13:14:58;;;;;;;8.20;1.80;;;;;;;16.79;60.03;99454.00;435820;1252;98010;-42
2023/10/04 13:25:04;;;;;;;7.80;2.50;;;;;;;16.79;60.52;99445.50;435665;1252;110502;-42
2023/10/04 13:35:09;;;;;;;9.80;2.00;;;;;;;16.66;60.44;99447.70;435694;1250;96647;-42
2023/10/04 13:45:13;;;;;;;6.80;1.90;;;;;;;16.49;60.61;99443.52;435674;1251;107356;-42
2023/10/04 13:55:21;;;;;;;3.70;1.40;;;;;;;16.56;61.04;99423.81;435822;1247;97468;-42
2023/10/04 14:05:26;;;;;;;6.90;2.10;;;;;;;16.68;61.25;99426.00;435950;1247;110707;-41
2023/10/04 14:26:52;;;;;;;4.90;2.20;;;;;;;16.33;61.19;99441.51;435509;1250;97868;-42
2023/10/04 14:36:55;;;;;;;3.40;2.10;;;;;;;16.16;61.72;99441.86;435415;1248;110526;-41
2023/10/04 14:47:03;;;;;;;7.90;2.60;;;;;;;16.16;61.88;99439.30;435541;1255;108321;-41
2023/10/04 14:57:07;;;;;;;8.60;2.60;;;;;;;16.07;62.15;99430.30;435643;1250;97871;-43
2023/10/04 15:07:25;;;;;;;4.60;2.20;;;;;;;15.86;62.53;99437.43;435613;1252;109440;-42
2023/10/04 15:17:29;;;;;;;5.80;2.50;;;;;;;15.78;62.80;99444.29;435499;1252;98025;-43
2023/10/04 15:27:34;;;;;;;4.70;2.00;;;;;;;15.75;63.16;99451.23;435467;1248;108357;-42
2023/10/04 15:37:38;;;;;;;6.90;2.70;;;;;;;15.62;63.67;99452.77;435560;1252;108518;-44
2023/10/04 15:48:08;;;;;;;6.60;2.70;;;;;;;15.57;64.05;99452.74;435686;1252;96641;-41
2023/10/04 15:58:15;;;;;;;6.40;2.40;;;;;;;15.59;64.29;99453.31;435408;1250;110291;-42
2023/10/04 16:08:20;;;;;;;5.30;2.70;;;;;;;15.25;64.25;99451.61;435579;1250;108539;-43
2023/10/04 16:18:28;;;;;;;10.30;2.90;;;;;;;14.97;64.63;99452.21;435500;1250;98097;-43
2023/10/04 16:28:34;;;;;;;11.00;5.00;;;;;;;14.66;64.87;99453.00;435591;1252;109172;-43
2023/10/04 16:38:38;;;;;;;12.80;5.80;;;;;;;14.22;65.35;99449.23;435422;1252;111460;-42
2023/10/04 16:48:46;;;;;;;11.60;6.20;;;;;;;13.82;65.90;99467.16;435530;1250;97972;-42
2023/10/04 16:58:50;;;;;;;16.10;8.70;;;;;;;13.52;66.81;99485.14;435507;1252;107798;-42
2023/10/04 17:08:54;;;;;;;15.00;7.80;;;;;;;13.30;66.99;99484.89;435368;1252;96650;-42
2023/10/04 17:19:00;;;;;;;13.10;7.90;;;;;;;13.15;67.56;99487.81;435533;1252;111871;-42
2023/10/04 17:29:04;;;;;;;22.30;9.40;;;;;;;13.03;67.77;99485.84;435558;1252;108276;-43
2023/10/04 17:39:11;;;;;;;23.30;12.80;;;;;;;12.86;68.47;99485.33;435558;1261;97934;-43
2023/10/04 17:49:15;;;;;;;27.60;12.90;;;;;;;12.70;68.96;99485.32;435611;1252;109031;-42
2023/10/04 17:59:19;;;;;;;17.50;9.70;;;;;;;12.54;69.19;99491.02;435387;1252;108589;-43
2023/10/04 18:09:23;;;;;;;23.30;8.70;;;;;;;12.43;69.53;99500.44;435490;1252;98370;-43
2023/10/04 18:19:29;;;;;;;19.00;11.10;;;;;;;12.40;69.99;99501.66;435616;1248;107683;-42
2023/10/04 18:29:33;;;;;;;24.80;14.30;;;;;;;12.21;70.27;99503.34;435445;1248;97864;-43
2023/10/04 18:39:38;;;;;;;59.30;40.30;;;;;;;12.28;70.69;99509.96;435536;1261;109408;-42
2023/10/04 18:49:42;;;;;;;31.70;21.00;;;;;;;12.33;70.73;99523.47;435554;1253;108730;-42
2023/10/04 18:59:52;;;;;;;15.10;9.70;;;;;;;12.01;70.77;99531.17;435534;1252;97865;-42
2023/10/04 19:09:55;;;;;;;36.80;15.50;;;;;;;11.77;71.56;99518.83;435472;1250;109036;-42
2023/10/04 19:19:59;;;;;;;25.20;10.60;;;;;;;11.78;71.63;99530.37;435269;1256;109119;-43
2023/10/04 19:30:05;;;;;;;21.00;9.20;;;;;;;11.69;71.84;99537.31;435370;1252;97899;-42
2023/10/04 19:40:15;;;;;;;17.60;9.50;;;;;;;11.54;72.00;99533.13;435496;1252;108017;-40
2023/10/04 19:50:20;;;;;;;17.30;9.50;;;;;;;11.35;72.47;99540.00;435372;1252;97857;-42
2023/10/04 20:00:25;;;;;;;19.10;10.30;;;;;;;11.36;72.64;99536.45;435492;1252;97923;-43
2023/10/04 20:10:32;;;;;;;16.70;9.70;;;;;;;11.38;72.95;99530.30;435426;1253;106688;-43
2023/10/04 20:20:40;;;;;;;20.40;8.40;;;;;;;11.39;73.09;99523.04;435398;1252;98018;-41
2023/10/04 20:30:45;;;;;;;16.00;8.70;;;;;;;11.33;73.36;99525.55;435669;1252;110811;-43
2023/10/04 20:40:50;;;;;;;14.90;8.60;;;;;;;11.06;73.41;99529.77;435312;1262;108464;-42
2023/10/04 20:50:54;;;;;;;19.90;9.10;;;;;;;10.82;73.61;99530.62;435534;1261;97506;-42
2023/10/04 21:01:03;;;;;;;15.40;7.10;;;;;;;10.86;74.05;99526.58;435485;1253;107519;-41
2023/10/04 21:11:07;;;;;;;21.90;12.70;;;;;;;10.98;74.38;99521.65;435438;1252;97870;-42
2023/10/04 21:21:13;;;;;;;23.60;13.60;;;;;;;10.92;74.48;99520.45;435502;1252;109964;-42
2023/10/04 21:31:17;;;;;;;18.10;11.50;;;;;;;10.92;74.75;99517.33;435389;1253;109616;-42
2023/10/04 21:41:21;;;;;;;15.70;10.00;;;;;;;10.85;74.59;99515.88;435457;1253;97868;-41
2023/10/04 21:51:36;;;;;;;14.00;8.70;;;;;;;10.82;75.03;99519.93;435421;1253;108648;-42
2023/10/04 22:01:42;;;;;;;14.50;8.80;;;;;;;11.02;75.16;99500.09;435515;1263;98148;-42
2023/10/04 22:11:48;;;;;;;13.60;9.70;;;;;;;10.93;74.82;99506.92;435559;1248;111257;-42
2023/10/04 22:21:52;;;;;;;22.90;9.00;;;;;;;10.69;75.17;99502.80;435524;1261;108128;-43
2023/10/04 22:32:00;;;;;;;16.80;8.70;;;;;;;10.69;75.40;99502.02;435382;1261;97091;-43
2023/10/04 22:42:05;;;;;;;15.90;9.00;;;;;;;10.82;75.67;99496.27;435655;1248;109655;-42
2023/10/04 22:52:09;;;;;;;14.50;9.10;;;;;;;10.75;75.66;99483.32;435485;1248;111462;-41
2023/10/04 23:02:16;;;;;;;20.20;8.90;;;;;;;10.74;75.88;99475.10;435415;1253;97935;-43
2023/10/04 23:12:22;;;;;;;18.20;8.20;;;;;;;10.75;75.55;99451.34;435400;1261;110829;-42
2023/10/04 23:22:29;;;;;;;16.40;8.30;;;;;;;10.69;75.80;99452.10;435540;1264;98507;-43
2023/10/04 23:32:33;;;;;;;22.30;9.20;;;;;;;10.55;75.85;99450.69;435780;1248;111749;-42
2023/10/04 23:42:37;;;;;;;15.70;8.80;;;;;;;10.17;76.12;99438.94;435623;1260;107231;-42
2023/10/04 23:52:41;;;;;;;15.80;8.20;;;;;;;10.03;76.21;99428.67;435458;1254;98508;-43
